AirNav   Phillips 66 Aviation Fuel
 
 1503 users online  

P48 Pleasant Valley Airport
Peoria, Arizona, USA

GOING TO PEORIA?


FAA INFORMATION EFFECTIVE 04 JANUARY 2018

Location

FAA Identifier: P48
Lat/Long: 33-48-02.1280N / 112-15-02.5750W
33-48.035467N / 112-15.042917W
33.8005911 / -112.2507153
(estimated)
Elevation: 1580 ft. / 482 m (estimated)
Variation: 13E (1985)
Time zone: UTC -7 (year round; does not observe DST)
Zip code: 85382

Airport Operations

Airport use: Open to the public
Activation date: 11/1977
Control tower: no
ARTCC: ALBUQUERQUE CENTER
FSS: PRESCOTT FLIGHT SERVICE STATION
NOTAMs facility: PRC (NOTAM-D service available)
Attendance: 0900-1700
Wind indicator: yes
Segmented circle: yes

Airport Communications

CTAF: 122.9
WX ASOS at DVT (11 nm SE): PHONE 623-587-7764
WX AWOS-3 at GEU (17 nm S): 119.425 (623-877-8609)
WX AWOS-1 at 18AZ (18 nm E): 125.625 (480-488-7882)

Nearby radio navigation aids

VOR radial/distance  VOR name  Freq  Var
PXRr316/26.1PHOENIX VORTAC115.6012E
BXKr040/35.4BUCKEYE VORTAC110.6014E

 
NDB name  Hdg/Dist  Freq  Var  ID
CHANDLER313/39.040712ECHD -.-. .... -..

Airport Services

Fuel available: 100LL
Parking: tiedowns

Runway Information

Runway 5C/23C

Dimensions: 4200 x 100 ft. / 1280 x 30 m
Surface: dirt, in fair condition
RUNWAY 5C  RUNWAY 23C
Traffic pattern: rightleft
Displaced threshold: 490 ft.200 ft.
Obstructions: 15 ft. road
APCH SLOPE 30:1 AT DSPLCD THLD.
10 ft. road, 10 ft. from runway
RWY 23C 28:1 AT DISPLACED THRESHOLD.

Runway 5L/23R

Dimensions: 4200 x 100 ft. / 1280 x 30 m
Surface: gravel, in fair condition
RUNWAY 5L  RUNWAY 23R
Traffic pattern: leftright
Displaced threshold: 480 ft.63 ft.
Obstructions: 15 ft. road
RWY 5L 32:1 AT DISPLACED THRESHOLD.
10 ft. road, 65 ft. from runway, 6:1 slope to clear
RWY 23R 24:1 AT DISPLACED THRESHOLD.

Runway 5R/23L

Dimensions: 4200 x 100 ft. / 1280 x 30 m
Surface: dirt, in fair condition
RUNWAY 5R  RUNWAY 23L
Traffic pattern: rightleft
Displaced threshold: 580 ft.240 ft.
Obstructions: 15 ft. road
RWY 5R 39:1 AT DISPLACED THRESHOLD.
10 ft. road, 60 ft. from runway
RWY 23L 30:1 AT DISPLACED THRESHOLD.

Runway 14/32

Dimensions: 2400 x 100 ft. / 732 x 30 m
Surface: gravel, in excellent condition
RUNWAY 14  RUNWAY 32
Traffic pattern: rightleft
Displaced threshold: 200 ft.300 ft.
Obstructions: none15 ft. road

Airport Ownership and Management from official FAA records

Ownership: Privately-owned
Owner: PLEASANT VALLEY AIRPORT ASSOC
8700 WEST CAREFREE HWY
PEORIA, AZ 85383
Phone 602-439-3621
Manager: ROY M COULLIETTE
8700 W CAREFREE HWY
PEORIA, AZ 85383
Phone 602-439-3621

Airport Operational Statistics

Aircraft based on the field: 33
Single engine airplanes: 14
Gliders airplanes: 14
Ultralights: 5
    
Aircraft operations: avg 151/day *
73% local general aviation
27% transient general aviation
* for 12-month period ending 18 April 2015

Additional Remarks

POWERED ACFT PREFERRED RY 23R AND RY 05L.
AEROBATIC ACTIVITY ON & INVOF ARPT. AEROBATIC BOX APPROX 3,000 FT NW OF RY 05/23 SFC TO 6,600 FT MSL. BE ALERT RY 14/32 WHEN AEROBATIC BOX OCCUPIED.
RYS 23C, 23R & 23L +24 FT POWERLINE MKD WITH BALLS ACROSS THLDS.
RY 14/32 PREFERRED LANDINGS & TAKEOFFS NORTH OF ALL INTERSECTIONS OF RY 05/23.
EXTENSIVE GLIDER AND ULTRALIGHT ACTIVITY ON AND INVOF OF ARPT.
CTC FBO ON 122.90
ALL RYS SOFT WHEN WET.
BLDG AND PARKED ACFT LCTD 120 FT SOUTH OF RY 05R/23L APPROX MIDPOINT.
DSPLCD THLDS ON ALL RYS MKD WITH WHITE CHALK AND SMALL WHITE TIRES.
SHALLOW UNDERGROUND GAS PIPELINE LCTD 240 FT FM EOR 23L, 23C, AND 23R.
RY SEPARATIONS DO NOT MEET MINIMUM STDS, SIMULTANEOUS OPNS NOT AUTH ON ANY TWO RYS.

Instrument Procedures

There are no published instrument procedures at P48.

Some nearby airports with instrument procedures:

KDVT - Phoenix Deer Valley Airport (11 nm SE)
KGEU - Glendale Municipal Airport (17 nm S)
KLUF - Luke Air Force Base (17 nm SW)
KSDL - Scottsdale Airport (20 nm SE)
KGYR - Phoenix Goodyear Airport (23 nm S)
 
Loc | Ops | Rwys | IFR | FBO | Links
Com | Nav | Svcs | Stats | Notes


 
Area around P48 (Pleasant Valley Airport)
 
Road maps at: MapQuest Bing Google
 
Aerial photo
WARNING: Photo may not be current or correct
Aerial photo of P48 (Pleasant Valley Airport)
Photo by Jaemyung Kim
Photo taken 06-Jul-2017
looking northwest.

Do you have a better or more recent aerial photo of Pleasant Valley Airport that you would like to share? If so, please send us your photo.

 
Sectional chart

 
Airport distance calculator
Flying to Pleasant Valley Airport? Find the distance to fly.

From to P48

Sunrise and sunset
Times for 18-Jan-2018
 Local
(UTC-7)
 Zulu
(UTC)
Morning civil twilight07:0714:07
Sunrise07:3414:34
Sunset17:4500:45
Evening civil twilight18:1201:12

Current date and time
Zulu (UTC)  18-Jan-2018 18:37:14
Local (UTC-7)  18-Jan-2018 11:37:14
 
METAR
KDVT 
12nm SE 
181753Z 00000KT 10SM CLR 17/M03 A3020 RMK AO2 SLP217 T01721028 10172 20061 50008
KGEU 
16nm S 
181748Z 07003KT 10SM FEW200 17/M01 A3022
KLUF 
18nm S 
181758Z AUTO 06003KT 10SM CLR 16/M01 A3019 RMK AO2 SLP221 T01621014 10162 20053 51008 $
KSDL 
20nm SE 
181753Z 00000KT 10SM CLR 17/M02 A3022 RMK AO2 SLP221 T01671017 10167 20067 50009
TAF
KLUF 
18nm S 
181200Z 1812/1918 01006KT 9999 FEW250 QNH3008INS BECMG 1821/1822 21005KT 9999 FEW250 QNH3004INS BECMG 1901/1902 36005KT 9999 SCT250 QNH3000INS TX23/1823Z TN05/1814Z
KSDL 
20nm SE 
181720Z 1818/1918 VRB03KT P6SM SCT250
NOTAMs
Click for the latest NOTAMs
NOTAMs are issued by the DoD/FAA and will open in a separate window not controlled by AirNav.

 

 
 

Would you like to see your business listed on this page?

 If your business provides an interesting product or service to pilots, flight crews, aircraft, or users of the Pleasant Valley Airport, you should consider listing it here.  To start the listing process, click on the button below
 
Add a business
 

Other Pages about Pleasant Valley Airport

Update a link
 
Copyright © AirNav, LLC. All rights reserved. Privacy Policy  Contact